This is the latest recevied weather packets stored in our database for station/object SP6RGZ-1. If no packets are shown the sender has not sent any weather packets the latest 10 day(s).
| Time | Temp. | Humidity | Pressure | Rain* | Wind** | Luminosity | Snow |
|---|---|---|---|---|---|---|---|
| 1777942802 | 17.22° C | 69% | 991.3 hPa | - | - | - | - |
| 1777941902 | 16.67° C | 70% | 991.3 hPa | - | - | - | - |
| 1777941002 | 16.67° C | 70% | 991.5 hPa | - | - | - | - |
| 1777940102 | 16.67° C | 69% | 991.6 hPa | - | - | - | - |
| 1777939203 | 16.67° C | 69% | 991.6 hPa | - | - | - | - |
| 1777938302 | 17.22° C | 69% | 991.8 hPa | - | - | - | - |
| 1777937402 | 17.22° C | 69% | 992 hPa | - | - | - | - |
| 1777936502 | 17.22° C | 68% | 992 hPa | - | - | - | - |
| 1777935602 | 17.78° C | 68% | 992 hPa | - | - | - | - |
| 1777934703 | 17.78° C | 67% | 992 hPa | - | - | - | - |
| 1777933803 | 17.78° C | 67% | 992.2 hPa | - | - | - | - |
| 1777932903 | 18.33° C | 66% | 992.2 hPa | - | - | - | - |
| 1777932002 | 18.33° C | 64% | 992.3 hPa | - | - | - | - |
| 1777931102 | 18.89° C | 62% | 992.3 hPa | - | - | - | - |
| 1777930202 | 18.89° C | 62% | 992.2 hPa | - | - | - | - |
| 1777929302 | 19.44° C | 60% | 992.2 hPa | - | - | - | - |
| 1777928402 | 18.89° C | 61% | 992.2 hPa | - | - | - | - |
| 1777927502 | 18.89° C | 64% | 992.2 hPa | - | - | - | - |
| 1777926602 | 20° C | 60% | 992.2 hPa | - | - | - | - |
| 1777925702 | 20° C | 59% | 992.2 hPa | - | - | - | - |
| 1777924802 | 20.56° C | 57% | 992.1 hPa | - | - | - | - |
| 1777923902 | 20.56° C | 55% | 992.1 hPa | - | - | - | - |
| 1777923002 | 21.11° C | 55% | 992.2 hPa | - | - | - | - |
| 1777922102 | 21.11° C | 54% | 992.1 hPa | - | - | - | - |
| 1777921202 | 21.11° C | 52% | 992 hPa | - | - | - | - |
* Rain since midnight (hover to see other rain measurements)
** Current wind speed in m/s (hover to see current wind gust speed)